Aeroporto :
LOGIN :

Iscrizione | Disclaimer

   EN    FR    IT 

 










Sommario :    VFR   VFR Marginale   IFR   IFR Intensivo   IFR Molto Intensivo
Visibilità : 
Base nubi : 
>= 8 km
>= 3000ft
5 / 8 km
1000 / 3000 ft
1500m / 5 km
500 / 1000 ft
800 / 1500m
200 / 500 ft
< 800m
< 200 ft
Simboli :   Temporali  Nebbia  Neve Forte  Precipitazioni Forti  Vento > 20 kt
SIGMETs :   Varie  Temporali  Ghiacco  Turbolenza  Onda orograficha  Ceneri Vulcaniche






- Altitudine del aeroporto : 13 ft


LTFA - Kakl?ç

ULTIMO METAR :
  • 270907Z 25012KT 9999 -SHRA FEW020 SCT030 BKN090 14/12 Q1014 RMK RWY17 23014KT

METARs OBSOLETI :
  • 270736Z 29013KT 7000 -SHRA FEW010 SCT030 BKN080 14/13 Q1013 RMK RWY17 26012KT
  • 270714Z 28013KT 4000 -SHRA BR FEW010 SCT030 BKN080 14/13 Q1013 RMK RWY17 27014KT

TAF TAF LTFA
Valido dal 27 a 09 ore il 27 a 18 ore UTC


270740Z 2709/2718 32012KT 9999 FEW020 SCT035 BKN100
TEMPO 2709/2712 -SHRA



MetMap, La meteo Aeronautica in un colpo d'occhio ! - Copyright ORBIFLY Dicembre 2007 - Disclaimer

ORBIFLY MET'MAP TEAM :

Programmazione e sviluppo : Alexandra Zaïnal
Concezione : Baudouin d'Aumeries
Aiuto per la programmazione : Marc-Olivier Méhu
Supporto tecnico e logistico : Manuel Goepfert
Aiuto per la traduzione : Arnaldo La Scala

Contatto : metmap@orbifly.com




FONTI E CREDITI :

   NOAA